Time;durP1;ratioP1;P1;durP2;ratioP2;P2;SDS_P1;SDS_P2;PMS_P1;PMS_P2;Temp;Humidity;BMP_temperature;BMP_pressure;BME280_temperature;BME280_humidity;BME280_pressure;Samples;Min_cycle;Max_cycle;Signal;HPM_P1;HPM_P2
2023/02/06 00:00:07;;;;;;;10.43;8.15;;;;;;;-0.72;100.00;94647.44;2534117;23;20010;-82
2023/02/06 00:01:08;;;;;;;11.73;8.98;;;;;;;-0.64;100.00;94646.69;2533196;23;20344;-90
2023/02/06 00:02:11;;;;;;;28.50;8.90;;;;;;;-0.65;100.00;94644.38;2545430;23;20029;-84
2023/02/06 00:03:14;;;;;;;15.98;9.50;;;;;;;-0.67;100.00;94646.53;2534351;23;20052;-85
2023/02/06 00:04:15;;;;;;;34.63;10.40;;;;;;;-0.55;100.00;94647.47;2533421;23;20006;-85
2023/02/06 00:05:17;;;;;;;35.78;10.20;;;;;;;-0.62;100.00;94649.00;2544987;23;20545;-88
2023/02/06 00:06:19;;;;;;;22.35;10.73;;;;;;;-0.62;100.00;94646.38;2533665;23;20012;-83
2023/02/06 00:07:26;;;;;;;38.20;10.32;;;;;;;-0.80;100.00;94642.97;2535617;23;20447;-84
2023/02/06 00:08:27;;;;;;;31.90;10.73;;;;;;;-0.77;100.00;94642.34;2534431;23;20013;-86
2023/02/06 00:09:28;;;;;;;23.88;10.80;;;;;;;-0.76;100.00;94639.41;2545581;23;20001;-84
2023/02/06 00:10:31;;;;;;;35.75;10.75;;;;;;;-0.84;100.00;94645.41;2545176;23;20005;-84
2023/02/06 00:11:33;;;;;;;29.23;11.98;;;;;;;-0.80;100.00;94650.81;2534262;23;20123;-84
2023/02/06 00:12:35;;;;;;;76.43;12.25;;;;;;;-0.91;100.00;94654.84;2546185;23;20009;-86
2023/02/06 00:13:37;;;;;;;33.88;10.15;;;;;;;-0.91;100.00;94655.59;2557855;23;20013;-86
2023/02/06 00:14:38;;;;;;;32.78;11.13;;;;;;;-0.77;100.00;94647.59;2545111;23;20356;-83
2023/02/06 00:15:39;;;;;;;37.33;11.70;;;;;;;-0.66;100.00;94648.88;2545460;23;20024;-89
2023/02/06 00:16:42;;;;;;;86.38;12.45;;;;;;;-0.58;100.00;94648.09;2557472;23;20008;-87
2023/02/06 00:17:43;;;;;;;45.92;12.38;;;;;;;-0.65;100.00;94654.91;2546535;23;20081;-85
2023/02/06 00:18:45;;;;;;;38.97;12.05;;;;;;;-0.70;100.00;94642.69;2570048;23;20351;-83
2023/02/06 00:19:46;;;;;;;124.72;13.90;;;;;;;-0.79;100.00;94657.63;2557343;23;20020;-85
2023/02/06 00:20:47;;;;;;;79.45;13.77;;;;;;;-0.88;100.00;94649.75;2533222;23;20451;-86
2023/02/06 00:21:48;;;;;;;57.35;12.15;;;;;;;-0.93;100.00;94649.09;2532921;23;20056;-85
2023/02/06 00:22:49;;;;;;;69.43;12.52;;;;;;;-0.88;100.00;94651.56;2533598;23;20429;-88
2023/02/06 00:24:01;;;;;;;65.63;10.57;;;;;;;-0.83;100.00;94652.22;2545571;23;20021;-86
2023/02/06 00:25:03;;;;;;;92.10;11.57;;;;;;;-0.74;100.00;94648.84;2560627;23;20431;-88
2023/02/06 00:26:06;;;;;;;48.35;11.90;;;;;;;-0.87;100.00;94655.78;2570485;23;20036;-84
2023/02/06 00:27:08;;;;;;;69.13;12.95;;;;;;;-0.92;100.00;94655.88;2545876;23;20001;-82
2023/02/06 00:28:09;;;;;;;102.78;12.95;;;;;;;-0.77;100.00;94658.09;2533944;23;20061;-85
2023/02/06 00:29:10;;;;;;;103.80;13.38;;;;;;;-0.82;100.00;94653.00;2546162;23;20036;-85
2023/02/06 00:30:12;;;;;;;104.72;13.43;;;;;;;-0.80;100.00;94656.06;2546042;23;20036;-85
2023/02/06 00:31:14;;;;;;;95.30;13.25;;;;;;;-0.72;100.00;94657.94;2546193;23;20009;-82
2023/02/06 00:32:22;;;;;;;62.90;13.48;;;;;;;-0.71;100.00;94659.50;2564479;23;20005;-82
2023/02/06 00:33:22;;;;;;;114.38;12.65;;;;;;;-0.85;100.00;94651.75;2550494;23;20152;-81
2023/02/06 00:34:25;;;;;;;93.57;13.07;;;;;;;-0.85;100.00;94656.22;2537953;23;20013;-87
2023/02/06 00:35:27;;;;;;;55.10;13.13;;;;;;;-0.68;100.00;94666.00;2546375;23;20006;-85
2023/02/06 00:36:33;;;;;;;124.65;13.25;;;;;;;-0.77;100.00;94660.72;2546982;23;20009;-85
2023/02/06 00:37:34;;;;;;;67.07;12.68;;;;;;;-0.81;100.00;94657.16;2547110;23;20067;-87
2023/02/06 00:38:36;;;;;;;129.60;13.10;;;;;;;-0.95;100.00;94659.91;2558032;23;20025;-85
2023/02/06 00:39:37;;;;;;;88.53;13.60;;;;;;;-0.97;100.00;94654.19;2558282;23;20008;-85
2023/02/06 00:40:38;;;;;;;66.47;13.32;;;;;;;-1.01;100.00;94658.47;2558441;23;20495;-85
2023/02/06 00:41:40;;;;;;;48.17;12.65;;;;;;;-0.95;100.00;94661.75;2561374;23;20107;-84
2023/02/06 00:42:43;;;;;;;74.68;13.52;;;;;;;-0.96;100.00;94660.22;2555895;23;20045;-83
2023/02/06 00:43:47;;;;;;;55.72;14.27;;;;;;;-0.87;100.00;94659.16;2545881;23;20022;-83
2023/02/06 00:44:49;;;;;;;98.50;13.98;;;;;;;-0.83;100.00;94660.09;2552540;23;20011;-84
2023/02/06 00:45:56;;;;;;;57.17;13.05;;;;;;;-0.87;100.00;94663.66;2548744;23;20006;-83
2023/02/06 00:46:58;;;;;;;64.10;14.05;;;;;;;-0.94;100.00;94655.44;2538322;23;20016;-84
2023/02/06 00:48:00;;;;;;;42.35;12.55;;;;;;;-0.82;100.00;94655.63;2536437;23;20010;-86
2023/02/06 00:49:01;;;;;;;37.83;12.93;;;;;;;-0.87;100.00;94653.16;2547187;23;20005;-86
2023/02/06 00:50:03;;;;;;;39.95;13.52;;;;;;;-0.88;100.00;94652.38;2534957;23;20002;-84
2023/02/06 00:51:04;;;;;;;56.90;13.15;;;;;;;-0.89;100.00;94661.31;2535434;23;20425;-85
2023/02/06 00:52:05;;;;;;;32.63;12.77;;;;;;;-0.78;100.00;94657.34;2547536;23;20005;-86
2023/02/06 00:53:06;;;;;;;40.67;13.52;;;;;;;-0.55;100.00;94650.09;2534192;23;20445;-85
2023/02/06 00:54:08;;;;;;;34.95;12.25;;;;;;;-0.73;100.00;94653.03;2546588;23;20012;-87
2023/02/06 00:55:09;;;;;;;20.95;11.88;;;;;;;-0.76;100.00;94655.16;2546676;23;20002;-83
2023/02/06 00:56:10;;;;;;;18.45;10.35;;;;;;;-0.76;100.00;94651.78;2533924;23;20092;-86
2023/02/06 00:57:12;;;;;;;22.52;11.85;;;;;;;-0.80;100.00;94661.31;2533842;23;20057;-85
2023/02/06 00:58:13;;;;;;;17.65;11.20;;;;;;;-0.77;100.00;94660.72;2546415;23;20005;-87
2023/02/06 00:59:15;;;;;;;22.40;11.98;;;;;;;-0.77;100.00;94658.88;2557708;23;20005;-83
2023/02/06 01:00:19;;;;;;;19.75;11.65;;;;;;;-0.68;100.00;94655.50;2533827;23;20017;-86
2023/02/06 01:01:20;;;;;;;16.83;10.20;;;;;;;-0.57;100.00;94656.72;2536930;23;20017;-84
2023/02/06 01:02:21;;;;;;;18.15;11.30;;;;;;;-0.33;100.00;94662.34;2535608;23;20064;-86
2023/02/06 01:03:22;;;;;;;19.38;11.95;;;;;;;-0.52;100.00;94659.25;2535068;23;20010;-87
2023/02/06 01:04:23;;;;;;;16.30;10.32;;;;;;;-0.59;100.00;94659.69;2546762;23;20036;-87
2023/02/06 01:05:24;;;;;;;16.92;10.32;;;;;;;-0.63;100.00;94648.25;2546756;23;20499;-84
2023/02/06 01:06:26;;;;;;;18.23;10.90;;;;;;;-0.65;100.00;94647.78;2546619;23;20087;-87
2023/02/06 01:07:27;;;;;;;18.98;11.10;;;;;;;-0.66;100.00;94651.50;2535018;23;20005;-87
2023/02/06 01:08:29;;;;;;;25.50;11.52;;;;;;;-0.66;100.00;94656.75;2534186;23;20002;-86
2023/02/06 01:09:31;;;;;;;18.85;11.10;;;;;;;-0.70;100.00;94658.44;2546448;23;20440;-82
2023/02/06 01:10:32;;;;;;;27.77;12.32;;;;;;;-0.67;100.00;94659.66;2545796;23;20407;-85
2023/02/06 01:11:34;;;;;;;36.55;12.93;;;;;;;-0.65;100.00;94645.16;2557549;23;20312;-84
2023/02/06 01:12:37;;;;;;;38.67;13.30;;;;;;;-0.73;100.00;94656.41;2545243;23;20005;-86
2023/02/06 01:13:39;;;;;;;25.60;13.27;;;;;;;-0.81;100.00;94649.28;2545877;23;20140;-86
2023/02/06 01:14:40;;;;;;;31.63;12.80;;;;;;;-0.88;100.00;94652.38;2533255;23;20061;-88
2023/02/06 01:15:41;;;;;;;30.92;13.10;;;;;;;-0.90;100.00;94651.13;2533042;23;20033;-87
2023/02/06 01:16:43;;;;;;;27.70;13.38;;;;;;;-0.76;100.00;94655.16;2533346;23;20077;-88
2023/02/06 01:17:44;;;;;;;52.00;13.10;;;;;;;-0.61;100.00;94656.59;2533469;23;20001;-85
2023/02/06 01:18:45;;;;;;;32.30;12.65;;;;;;;-0.65;100.00;94655.66;2545302;23;20013;-84
2023/02/06 01:19:52;;;;;;;23.67;13.30;;;;;;;-0.76;100.00;94649.91;2545218;23;20124;-86
2023/02/06 01:20:54;;;;;;;28.25;12.73;;;;;;;-0.54;100.00;94656.91;2548037;23;19998;-87
2023/02/06 01:21:55;;;;;;;25.30;11.63;;;;;;;-0.58;100.00;94650.72;2557847;23;20035;-84
2023/02/06 01:22:59;;;;;;;21.92;11.73;;;;;;;-0.54;100.00;94651.66;2546242;23;20021;-84
2023/02/06 01:24:00;;;;;;;29.05;12.43;;;;;;;-0.53;100.00;94650.59;2546725;23;20092;-86
2023/02/06 01:25:01;;;;;;;29.00;13.05;;;;;;;-0.53;100.00;94647.16;2534117;23;20005;-84
2023/02/06 01:26:13;;;;;;;26.00;11.85;;;;;;;-0.45;100.00;94651.66;2546542;23;20010;-84
2023/02/06 01:27:20;;;;;;;36.53;12.25;;;;;;;-0.59;100.00;94653.66;2558933;23;20009;-85
2023/02/06 01:28:20;;;;;;;28.92;12.38;;;;;;;-0.61;100.00;94655.81;2548223;23;20006;-85
2023/02/06 01:29:21;;;;;;;26.80;13.15;;;;;;;-0.71;100.00;94646.38;2546022;23;20017;-83
2023/02/06 01:30:22;;;;;;;25.33;11.82;;;;;;;-0.67;100.00;94649.16;2562582;23;20000;-84
2023/02/06 01:31:27;;;;;;;35.45;12.98;;;;;;;-0.57;100.00;94644.41;2562801;23;20032;-81
2023/02/06 01:32:29;;;;;;;23.65;12.23;;;;;;;-0.57;100.00;94644.41;2540175;23;20093;-83
2023/02/06 01:33:30;;;;;;;36.08;12.88;;;;;;;-0.65;100.00;94647.78;2546267;23;20018;-88
2023/02/06 01:34:31;;;;;;;57.80;13.07;;;;;;;-0.65;100.00;94650.41;2557528;23;20096;-84
2023/02/06 01:35:32;;;;;;;64.38;12.85;;;;;;;-0.70;100.00;94647.94;2545369;23;20002;-85
2023/02/06 01:36:41;;;;;;;36.92;11.60;;;;;;;-0.63;100.00;94643.00;2546683;23;20479;-85
2023/02/06 01:37:42;;;;;;;30.88;11.48;;;;;;;-0.66;100.00;94646.25;2534881;23;20040;-83
2023/02/06 01:38:43;;;;;;;71.68;12.77;;;;;;;-0.61;100.00;94640.84;2532954;23;20024;-86
2023/02/06 01:39:44;;;;;;;64.72;11.93;;;;;;;-0.55;100.00;94644.84;2545221;23;20008;-86
2023/02/06 01:40:45;;;;;;;67.47;13.18;;;;;;;-0.62;100.00;94647.16;2545502;23;20001;-86
2023/02/06 01:41:46;;;;;;;57.00;13.32;;;;;;;-0.47;100.00;94651.22;2533547;23;20013;-88
2023/02/06 01:42:47;;;;;;;41.45;12.50;;;;;;;-0.57;100.00;94652.28;2545690;23;20009;-86
2023/02/06 01:44:09;;;;;;;77.00;14.90;;;;;;;-0.50;100.00;94646.56;2545351;23;20001;-89
2023/02/06 01:45:25;;;;;;;73.40;13.45;;;;;;;-0.56;100.00;94645.16;2549782;23;20012;-87
2023/02/06 01:46:27;;;;;;;54.03;12.65;;;;;;;-0.76;100.00;94649.13;2548698;23;20961;-86
2023/02/06 01:47:29;;;;;;;87.25;13.77;;;;;;;-0.52;100.00;94649.50;2534798;23;20002;-85
2023/02/06 01:48:47;;;;;;;52.50;12.52;;;;;;;-0.63;100.00;94657.97;2550360;23;20009;-82
2023/02/06 01:49:50;;;;;;;95.40;14.52;;;;;;;-0.69;100.00;94652.09;2570642;23;20052;-85
2023/02/06 01:51:06;;;;;;;125.75;14.15;;;;;;;-0.78;100.00;94656.56;2554975;23;20001;-83
2023/02/06 01:52:20;;;;;;;139.90;13.63;;;;;;;-0.82;100.00;94651.16;2555985;23;20028;-87
2023/02/06 01:53:25;;;;;;;138.13;14.35;;;;;;;-0.93;100.00;94641.22;2563335;23;20012;-84
2023/02/06 01:54:30;;;;;;;123.93;14.52;;;;;;;-0.92;100.00;94643.56;2540476;23;20002;-85
2023/02/06 01:55:42;;;;;;;109.72;14.82;;;;;;;-0.93;100.00;94641.22;2538347;23;20016;-87
2023/02/06 01:56:49;;;;;;;91.25;13.52;;;;;;;-0.96;100.00;94641.84;2552271;23;20084;-85
2023/02/06 01:57:51;;;;;;;91.95;14.07;;;;;;;-1.00;100.00;94644.31;2547140;23;20121;-87
2023/02/06 01:58:57;;;;;;;48.72;13.85;;;;;;;-0.70;100.00;94641.88;2533970;23;20146;-82
2023/02/06 02:00:04;;;;;;;52.15;13.43;;;;;;;-0.85;100.00;94637.84;2558567;23;20011;-85
2023/02/06 02:01:06;;;;;;;90.70;13.00;;;;;;;-0.98;100.00;94641.38;2546357;23;20083;-86
2023/02/06 02:02:07;;;;;;;63.40;12.05;;;;;;;-0.84;100.00;94650.66;2545104;23;20039;-85
2023/02/06 02:03:11;;;;;;;39.15;11.68;;;;;;;-0.89;100.00;94640.31;2545478;23;20001;-83
2023/02/06 02:04:24;;;;;;;51.50;12.50;;;;;;;-0.99;100.00;94635.34;2534453;23;20013;-87
2023/02/06 02:05:25;;;;;;;48.00;11.52;;;;;;;-0.94;100.00;94640.47;2537476;23;20089;-88
2023/02/06 02:06:28;;;;;;;55.22;12.13;;;;;;;-0.93;100.00;94636.75;2532924;23;20337;-87
2023/02/06 02:08:00;;;;;;;47.70;13.40;;;;;;;-0.87;100.00;94643.41;2545223;23;20020;-88
2023/02/06 02:09:03;;;;;;;63.88;12.00;;;;;;;-0.90;100.00;94644.03;2549528;23;20158;-83
2023/02/06 02:10:05;;;;;;;75.45;12.30;;;;;;;-0.90;100.00;94638.78;2544499;23;20056;-89
2023/02/06 02:11:12;;;;;;;75.68;12.35;;;;;;;-0.70;100.00;94631.38;2543232;23;20005;-85
2023/02/06 02:12:14;;;;;;;58.78;12.75;;;;;;;-0.87;100.00;94640.78;2535549;23;20089;-84
2023/02/06 02:13:15;;;;;;;51.85;12.77;;;;;;;-0.82;100.00;94635.41;2545079;23;20372;-87
2023/02/06 02:14:17;;;;;;;60.53;12.45;;;;;;;-0.65;100.00;94628.63;2544892;23;20147;-86
2023/02/06 02:15:23;;;;;;;60.90;11.30;;;;;;;-0.71;100.00;94630.63;2545043;23;20002;-87
2023/02/06 02:16:40;;;;;;;47.85;12.55;;;;;;;-0.77;100.00;94623.97;2547178;23;20005;-86
2023/02/06 02:19:21;;;;;;;39.55;11.95;;;;;;;-0.80;100.00;94635.84;2146685;27;20184;-77
2023/02/06 02:20:46;;;;;;;47.65;12.25;;;;;;;-0.64;100.00;94628.31;2126637;27;20045;-78
2023/02/06 02:22:05;;;;;;;46.20;11.05;;;;;;;-0.68;100.00;94632.63;2129376;27;20037;-79
2023/02/06 02:23:24;;;;;;;42.22;11.45;;;;;;;-0.70;100.00;94639.25;2124403;27;20023;-78
2023/02/06 02:24:56;;;;;;;33.88;11.77;;;;;;;-0.74;100.00;94633.88;2129407;27;20029;-79
2023/02/06 02:26:13;;;;;;;62.90;11.90;;;;;;;-0.71;100.00;94630.63;2127333;27;20026;-78
2023/02/06 02:27:52;;;;;;;58.92;11.68;;;;;;;-0.78;100.00;94632.94;2122724;27;20034;-78
2023/02/06 02:29:17;;;;;;;109.90;12.60;;;;;;;-0.74;100.00;94636.50;2114556;27;20050;-77
2023/02/06 02:30:19;;;;;;;109.40;12.52;;;;;;;-0.88;100.00;94627.97;2120850;27;20050;-78
2023/02/06 02:31:44;;;;;;;82.65;11.93;;;;;;;-0.96;100.00;94626.09;2129290;27;20023;-79
2023/02/06 02:33:04;;;;;;;54.65;11.02;;;;;;;-0.83;100.00;94638.34;2135076;27;20025;-78
2023/02/06 02:34:29;;;;;;;40.10;12.25;;;;;;;-0.87;100.00;94634.78;2120026;28;20031;-78
2023/02/06 02:35:43;;;;;;;98.78;14.05;;;;;;;-0.86;100.00;94639.72;2113186;27;20027;-77
2023/02/06 02:37:15;;;;;;;53.20;12.13;;;;;;;-0.85;100.00;94637.84;2124168;27;20492;-76
2023/02/06 02:38:31;;;;;;;47.20;12.18;;;;;;;-0.80;100.00;94637.72;2127110;27;20026;-79
2023/02/06 02:39:43;;;;;;;22.73;11.63;;;;;;;-0.93;100.00;94642.00;2137899;27;20029;-80
2023/02/06 02:40:44;;;;;;;23.83;11.13;;;;;;;-0.86;100.00;94628.44;2134856;27;20087;-79
2023/02/06 02:41:58;;;;;;;71.38;12.32;;;;;;;-0.82;100.00;94632.00;2137596;27;20490;-78
2023/02/06 02:43:18;;;;;;;28.02;12.45;;;;;;;-0.88;100.00;94636.63;2128361;27;20092;-79
2023/02/06 02:44:31;;;;;;;140.75;14.57;;;;;;;-0.90;100.00;94635.38;2118515;27;20023;-77
2023/02/06 02:45:53;;;;;;;100.60;13.13;;;;;;;-0.82;100.00;94632.00;2118034;28;20062;-77
2023/02/06 02:47:10;;;;;;;142.02;13.38;;;;;;;-0.89;100.00;94635.06;2123680;27;20038;-77
2023/02/06 02:48:39;;;;;;;76.13;12.80;;;;;;;-0.95;100.00;94638.16;2117455;27;20057;-77
2023/02/06 02:49:43;;;;;;;61.92;13.25;;;;;;;-0.95;100.00;94633.66;2123263;27;20037;-78
2023/02/06 02:50:45;;;;;;;51.55;12.23;;;;;;;-0.88;100.00;94625.34;2129142;27;20034;-80
2023/02/06 02:51:48;;;;;;;50.30;13.25;;;;;;;-1.08;100.00;94630.06;2128251;27;20521;-80
2023/02/06 02:52:50;;;;;;;21.00;11.32;;;;;;;-1.04;100.00;94623.16;2120195;27;20023;-79
2023/02/06 02:53:54;;;;;;;16.45;10.40;;;;;;;-1.10;100.00;94619.13;2128460;27;20031;-80
2023/02/06 02:54:56;;;;;;;13.57;9.20;;;;;;;-1.08;100.00;94627.44;2119675;28;20027;-80
2023/02/06 02:55:58;;;;;;;15.43;10.13;;;;;;;-1.00;100.00;94627.78;2108790;28;20032;-79
2023/02/06 02:57:18;;;;;;;14.20;10.20;;;;;;;-1.12;100.00;94631.75;2109560;28;20070;-79
2023/02/06 02:58:25;;;;;;;13.40;9.05;;;;;;;-0.97;100.00;94624.53;2123965;27;20049;-78
2023/02/06 02:59:36;;;;;;;15.25;9.93;;;;;;;-0.89;100.00;94639.53;2128815;27;20465;-79
2023/02/06 03:00:48;;;;;;;16.13;9.23;;;;;;;-0.91;100.00;94625.97;2115714;27;20059;-78
2023/02/06 03:01:58;;;;;;;14.45;9.48;;;;;;;-0.98;100.00;94623.00;2119983;27;20102;-79
2023/02/06 03:02:59;;;;;;;16.25;10.07;;;;;;;-1.00;100.00;94627.78;2120453;27;20409;-78
2023/02/06 03:04:05;;;;;;;15.18;9.40;;;;;;;-0.86;100.00;94617.94;2128380;27;20034;-78
2023/02/06 03:05:10;;;;;;;15.98;9.60;;;;;;;-0.92;100.00;94619.16;2137779;27;20087;-78
2023/02/06 03:06:36;;;;;;;15.18;10.23;;;;;;;-0.86;100.00;94616.09;2124974;27;20041;-78
2023/02/06 03:08:13;;;;;;;18.42;9.93;;;;;;;-0.89;100.00;94619.31;2123957;27;20018;-77
2023/02/06 03:09:39;;;;;;;20.52;11.32;;;;;;;-1.04;100.00;94623.16;2130167;27;20042;-78
2023/02/06 03:10:56;;;;;;;19.08;10.93;;;;;;;-1.07;100.00;94615.88;2133822;27;20018;-79
2023/02/06 03:12:21;;;;;;;21.13;10.52;;;;;;;-1.06;100.00;94622.66;2137916;27;20034;-79
2023/02/06 03:13:33;;;;;;;34.38;10.07;;;;;;;-0.89;100.00;94621.16;2126205;27;20026;-75
2023/02/06 03:14:48;;;;;;;29.88;10.63;;;;;;;-1.15;100.00;94621.88;2126961;27;20023;-76
2023/02/06 03:16:03;;;;;;;30.42;11.13;;;;;;;-0.91;100.00;94625.97;2128345;27;20095;-77
2023/02/06 03:17:08;;;;;;;31.48;11.93;;;;;;;-1.06;100.00;94630.53;2130221;27;20530;-77
2023/02/06 03:18:21;;;;;;;39.83;12.25;;;;;;;-1.04;100.00;94625.00;2124341;27;20084;-77
2023/02/06 03:19:29;;;;;;;28.63;11.50;;;;;;;-1.06;100.00;94635.00;2128307;27;20430;-77
2023/02/06 03:20:31;;;;;;;30.50;10.98;;;;;;;-1.08;100.00;94631.94;2128057;27;20027;-76
2023/02/06 03:21:44;;;;;;;21.45;11.25;;;;;;;-1.04;100.00;94633.63;2120687;27;20076;-77
2023/02/06 03:22:49;;;;;;;25.73;11.57;;;;;;;-1.00;100.00;94635.66;2120086;27;20739;-78
2023/02/06 03:23:56;;;;;;;22.25;11.18;;;;;;;-0.92;100.00;94637.50;2128219;27;20098;-78
2023/02/06 03:24:57;;;;;;;22.95;11.82;;;;;;;-0.97;100.00;94632.41;2127967;27;20023;-78
2023/02/06 03:26:03;;;;;;;24.88;12.38;;;;;;;-1.06;100.00;94635.78;2127774;27;20145;-77
2023/02/06 03:27:09;;;;;;;23.88;12.52;;;;;;;-1.06;100.00;94630.53;2128152;27;20091;-78
2023/02/06 03:28:16;;;;;;;31.75;13.43;;;;;;;-1.02;100.00;94633.31;2117675;27;20341;-77
2023/02/06 03:29:19;;;;;;;36.60;11.85;;;;;;;-0.98;100.00;94630.88;2114954;28;20039;-78
2023/02/06 03:30:23;;;;;;;39.35;12.05;;;;;;;-0.99;100.00;94624.84;2108038;28;20519;-79
2023/02/06 03:31:50;;;;;;;23.30;11.80;;;;;;;-1.14;100.00;94625.25;2115666;27;20042;-77
2023/02/06 03:32:55;;;;;;;26.13;11.75;;;;;;;-1.15;100.00;94623.72;2109751;28;20633;-77
2023/02/06 03:34:24;;;;;;;26.92;12.10;;;;;;;-0.99;100.00;94626.72;2116802;27;20027;-79
2023/02/06 03:35:30;;;;;;;23.13;11.60;;;;;;;-0.98;100.00;94626.41;2108552;27;20051;-77
2023/02/06 03:36:32;;;;;;;21.98;11.25;;;;;;;-0.90;100.00;94614.38;2122306;27;20095;-78
2023/02/06 03:37:35;;;;;;;22.92;10.82;;;;;;;-0.71;100.00;94619.34;2122417;27;20054;-78
2023/02/06 03:38:36;;;;;;;21.83;11.82;;;;;;;-0.79;100.00;94618.25;2122127;27;20051;-77
2023/02/06 03:39:39;;;;;;;22.30;11.52;;;;;;;-0.88;100.00;94622.72;2117819;27;20299;-78
2023/02/06 03:40:43;;;;;;;25.55;12.45;;;;;;;-0.86;100.00;94623.97;2122043;27;20027;-78
2023/02/06 03:41:46;;;;;;;24.30;11.73;;;;;;;-1.04;100.00;94623.16;2122440;27;20053;-79
2023/02/06 03:42:57;;;;;;;22.80;12.15;;;;;;;-0.92;100.00;94624.41;2122466;27;20094;-78
2023/02/06 03:44:00;;;;;;;17.65;10.50;;;;;;;-0.84;100.00;94621.03;2115040;27;20591;-77
2023/02/06 03:45:16;;;;;;;24.92;11.63;;;;;;;-1.10;100.00;94618.31;2114162;28;20819;-78
2023/02/06 03:46:22;;;;;;;21.10;11.40;;;;;;;-0.98;100.00;94623.78;2109148;27;20028;-78
2023/02/06 03:47:25;;;;;;;22.42;12.07;;;;;;;-0.94;100.00;94619.47;2114404;27;20480;-78
2023/02/06 03:48:33;;;;;;;30.38;12.85;;;;;;;-1.05;100.00;94626.09;2122219;27;20046;-79
2023/02/06 03:49:45;;;;;;;32.60;12.95;;;;;;;-1.13;100.00;94624.97;2106347;28;20024;-80
2023/02/06 03:51:05;;;;;;;20.55;11.55;;;;;;;-1.08;100.00;94621.44;2109011;27;20020;-80
2023/02/06 03:52:24;;;;;;;28.92;12.93;;;;;;;-1.01;100.00;94616.50;2105792;28;20060;-80
2023/02/06 03:53:38;;;;;;;38.35;12.90;;;;;;;-1.11;100.00;94614.16;2116748;27;20024;-80
2023/02/06 03:55:14;;;;;;;25.27;12.02;;;;;;;-1.06;100.00;94619.28;2112394;28;20048;-80
2023/02/06 03:56:21;;;;;;;;;;;;;;;-1.04;100.00;94617.91;2103949;28;20077;-80
2023/02/06 03:57:27;;;;;;;31.98;11.80;;;;;;;-0.96;100.00;94621.63;2099259;28;20433;-80
2023/02/06 03:58:29;;;;;;;28.27;12.50;;;;;;;-0.92;100.00;94616.53;2107116;27;20031;-79
2023/02/06 03:59:34;;;;;;;27.08;13.20;;;;;;;-0.97;100.00;94620.06;2122553;27;20110;-80
2023/02/06 04:00:42;;;;;;;26.75;13.23;;;;;;;-0.99;100.00;94616.97;2122354;27;20075;-81
2023/02/06 04:01:47;;;;;;;27.88;12.90;;;;;;;-0.87;100.00;94614.53;2114353;28;20027;-79
2023/02/06 04:02:52;;;;;;;37.83;13.23;;;;;;;-0.99;100.00;94621.47;2106789;28;20024;-78
2023/02/06 04:03:53;;;;;;;30.77;13.02;;;;;;;-1.06;100.00;94614.03;2114326;28;20049;-79
2023/02/06 04:04:54;;;;;;;24.20;12.77;;;;;;;-0.96;100.00;94628.72;2114001;28;20028;-79
2023/02/06 04:05:56;;;;;;;25.75;13.02;;;;;;;-0.93;100.00;94628.09;2111949;28;20030;-79
2023/02/06 04:07:01;;;;;;;26.83;13.38;;;;;;;-1.02;100.00;94623.59;2113818;28;20152;-79
2023/02/06 04:08:03;;;;;;;26.63;13.32;;;;;;;-0.82;100.00;94621.50;2101375;28;20088;-79
2023/02/06 04:09:04;;;;;;;23.75;12.50;;;;;;;-0.91;100.00;94624.09;2105845;28;20770;-79
2023/02/06 04:10:05;;;;;;;22.85;12.23;;;;;;;-0.71;100.00;94614.88;2105145;28;20035;-79
2023/02/06 04:11:16;;;;;;;23.40;12.10;;;;;;;-0.89;100.00;94614.06;2096673;28;20029;-79
2023/02/06 04:12:34;;;;;;;28.85;13.95;;;;;;;-0.93;100.00;94617.59;2107679;28;20057;-79
2023/02/06 04:13:35;;;;;;;24.08;12.57;;;;;;;-0.88;100.00;94614.84;2104348;28;20055;-79
2023/02/06 04:14:38;;;;;;;26.98;12.90;;;;;;;-1.08;100.00;94609.09;2101214;28;20027;-81
2023/02/06 04:15:51;;;;;;;28.55;12.88;;;;;;;-1.01;100.00;94616.50;2101107;28;20028;-82
2023/02/06 04:16:52;;;;;;;25.55;13.52;;;;;;;-1.05;100.00;94618.97;2099775;28;20021;-79
2023/02/06 04:17:54;;;;;;;25.10;13.07;;;;;;;-0.90;100.00;94617.00;2105098;27;20070;-78
2023/02/06 04:18:55;;;;;;;20.88;12.95;;;;;;;-0.80;100.00;94616.72;2113600;27;20027;-79
2023/02/06 04:19:56;;;;;;;20.23;12.32;;;;;;;-0.82;100.00;94618.88;2121925;27;20023;-79
2023/02/06 04:21:05;;;;;;;19.98;11.80;;;;;;;-0.67;100.00;94615.03;2121861;27;20706;-78
2023/02/06 04:22:10;;;;;;;22.83;11.70;;;;;;;-0.71;100.00;94617.50;2122889;27;20102;-79
2023/02/06 04:23:11;;;;;;;20.08;11.38;;;;;;;-0.82;100.00;94618.88;2119200;27;20046;-79
2023/02/06 04:24:11;;;;;;;22.45;12.52;;;;;;;-0.88;100.00;94614.84;2122238;27;20464;-78
2023/02/06 04:25:18;;;;;;;25.67;12.85;;;;;;;-0.99;100.00;94624.09;2113470;28;20489;-81
2023/02/06 04:26:42;;;;;;;28.33;14.35;;;;;;;-1.04;100.00;94615.28;2112483;27;20469;-80
2023/02/06 04:27:55;;;;;;;23.70;12.40;;;;;;;-1.03;100.00;94619.44;2117004;27;20019;-80
2023/02/06 04:29:11;;;;;;;24.10;12.98;;;;;;;-0.97;100.00;94616.66;2108997;28;20071;-81
2023/02/06 04:30:28;;;;;;;23.73;12.68;;;;;;;-0.93;100.00;94617.59;2105660;27;20093;-80
2023/02/06 04:31:53;;;;;;;24.92;11.75;;;;;;;-0.93;100.00;94614.97;2103722;28;20040;-82
2023/02/06 04:33:23;;;;;;;20.48;11.38;;;;;;;-1.12;100.00;94610.78;2106598;28;20087;-81
2023/02/06 04:35:11;;;;;;;21.33;11.25;;;;;;;-0.93;100.00;94607.88;2112982;27;20042;-81
2023/02/06 04:36:54;;;;;;;20.88;11.32;;;;;;;-0.96;100.00;94610.38;2119964;27;20031;-80
2023/02/06 04:43:03;;;;;;;20.55;11.05;;;;;;;-1.15;100.00;94616.63;2087858;28;20635;-80
2023/02/06 04:44:06;;;;;;;25.67;12.48;;;;;;;-1.14;100.00;94620.00;2092170;28;20385;-79
2023/02/06 04:45:08;;;;;;;23.92;12.98;;;;;;;-1.12;100.00;94616.03;2088115;28;20040;-80
2023/02/06 04:46:18;;;;;;;24.67;12.88;;;;;;;-1.20;100.00;94616.75;2090512;28;20067;-79
2023/02/06 04:47:22;;;;;;;24.60;12.27;;;;;;;-1.10;100.00;94619.13;2087913;28;20040;-80
2023/02/06 04:48:23;;;;;;;22.95;12.23;;;;;;;-1.11;100.00;94617.56;2101809;27;20043;-80
2023/02/06 04:49:27;;;;;;;24.48;13.15;;;;;;;-1.14;100.00;94617.38;2111040;28;20028;-81
2023/02/06 04:50:36;;;;;;;27.17;13.23;;;;;;;-1.11;100.00;94625.44;2105073;27;20213;-80
2023/02/06 04:51:39;;;;;;;26.75;13.50;;;;;;;-0.97;100.00;94617.44;2112819;27;20212;-78
2023/02/06 04:52:41;;;;;;;26.17;13.70;;;;;;;-1.12;100.00;94612.63;2110129;27;20114;-78
2023/02/06 04:53:42;;;;;;;26.40;13.20;;;;;;;-0.99;100.00;94611.72;2113069;27;20364;-78
2023/02/06 04:54:43;;;;;;;32.17;13.63;;;;;;;-0.88;100.00;94610.38;2110368;28;20034;-78
2023/02/06 04:55:44;;;;;;;28.50;12.77;;;;;;;-1.03;100.00;94605.56;2104849;28;20067;-78
2023/02/06 04:56:47;;;;;;;25.73;12.73;;;;;;;-0.92;100.00;94600.78;2105080;28;20446;-80
2023/02/06 04:57:50;;;;;;;27.45;13.20;;;;;;;-0.84;100.00;94608.66;2113271;27;20024;-81
2023/02/06 04:58:51;;;;;;;31.98;13.43;;;;;;;-0.92;100.00;94604.19;2121604;27;20038;-79
2023/02/06 04:59:51;;;;;;;27.75;13.25;;;;;;;-1.03;100.00;94608.94;2113280;28;20507;-79
2023/02/06 05:00:52;;;;;;;36.15;13.95;;;;;;;-0.94;100.00;94602.94;2113244;28;20031;-78
2023/02/06 05:01:54;;;;;;;32.10;13.40;;;;;;;-1.06;100.00;94608.78;2119789;27;20027;-80
2023/02/06 05:02:55;;;;;;;30.88;14.02;;;;;;;-1.02;100.00;94607.84;2119852;27;20046;-79
2023/02/06 05:03:56;;;;;;;31.98;13.93;;;;;;;-1.07;100.00;94604.59;2112991;28;20019;-79
2023/02/06 05:04:57;;;;;;;28.23;14.30;;;;;;;-1.08;100.00;94611.72;2104537;28;20654;-79
2023/02/06 05:06:01;;;;;;;29.42;14.10;;;;;;;-0.94;100.00;94618.69;2104682;28;20028;-79
2023/02/06 05:07:02;;;;;;;28.23;14.80;;;;;;;-1.04;100.00;94612.66;2113767;28;20381;-80
2023/02/06 05:08:03;;;;;;;32.13;14.50;;;;;;;-1.07;100.00;94608.00;2113323;28;20111;-82
2023/02/06 05:09:05;;;;;;;29.58;13.95;;;;;;;-1.01;100.00;94606.00;2113116;28;20507;-80
2023/02/06 05:10:08;;;;;;;34.53;15.38;;;;;;;-1.08;100.00;94609.09;2121703;27;20492;-81